sensor_id;sensor_type;location;lat;lon;timestamp;P1;durP1;ratioP1;P2;durP2;ratioP2
3070;SDS011;1546;47.208;9.038;2023-04-03T00:00:03;6.85;;;3.92;;
3070;SDS011;1546;47.208;9.038;2023-04-03T00:02:31;4.03;;;2.83;;
3070;SDS011;1546;47.208;9.038;2023-04-03T00:04:58;3.42;;;1.48;;
3070;SDS011;1546;47.208;9.038;2023-04-03T00:07:25;3.95;;;1.52;;
3070;SDS011;1546;47.208;9.038;2023-04-03T00:09:53;3.45;;;1.25;;
3070;SDS011;1546;47.208;9.038;2023-04-03T00:12:20;3.38;;;1.00;;
3070;SDS011;1546;47.208;9.038;2023-04-03T00:14:47;2.95;;;0.70;;
3070;SDS011;1546;47.208;9.038;2023-04-03T00:17:14;2.95;;;0.75;;
3070;SDS011;1546;47.208;9.038;2023-04-03T00:19:41;3.10;;;0.70;;
3070;SDS011;1546;47.208;9.038;2023-04-03T00:22:07;2.90;;;0.73;;
3070;SDS011;1546;47.208;9.038;2023-04-03T00:24:34;3.30;;;0.80;;
3070;SDS011;1546;47.208;9.038;2023-04-03T00:27:02;2.80;;;0.70;;
3070;SDS011;1546;47.208;9.038;2023-04-03T00:29:29;2.88;;;0.68;;
3070;SDS011;1546;47.208;9.038;2023-04-03T00:31:56;3.33;;;0.90;;
3070;SDS011;1546;47.208;9.038;2023-04-03T00:34:23;2.80;;;0.70;;
3070;SDS011;1546;47.208;9.038;2023-04-03T00:36:50;3.05;;;0.80;;
3070;SDS011;1546;47.208;9.038;2023-04-03T00:39:17;3.20;;;1.00;;
3070;SDS011;1546;47.208;9.038;2023-04-03T00:41:44;3.10;;;0.90;;
3070;SDS011;1546;47.208;9.038;2023-04-03T00:44:22;3.00;;;0.80;;
3070;SDS011;1546;47.208;9.038;2023-04-03T00:47:28;3.55;;;1.27;;
3070;SDS011;1546;47.208;9.038;2023-04-03T00:49:56;3.67;;;1.00;;
3070;SDS011;1546;47.208;9.038;2023-04-03T00:52:25;3.10;;;0.80;;
3070;SDS011;1546;47.208;9.038;2023-04-03T00:54:55;5.30;;;1.25;;
3070;SDS011;1546;47.208;9.038;2023-04-03T00:57:26;3.50;;;1.20;;
3070;SDS011;1546;47.208;9.038;2023-04-03T00:59:55;2.90;;;0.70;;
3070;SDS011;1546;47.208;9.038;2023-04-03T01:02:26;3.55;;;1.30;;
3070;SDS011;1546;47.208;9.038;2023-04-03T01:04:54;4.28;;;1.33;;
3070;SDS011;1546;47.208;9.038;2023-04-03T01:07:21;3.50;;;1.40;;
3070;SDS011;1546;47.208;9.038;2023-04-03T01:09:52;3.20;;;1.00;;
3070;SDS011;1546;47.208;9.038;2023-04-03T01:12:23;3.40;;;0.90;;
3070;SDS011;1546;47.208;9.038;2023-04-03T01:14:51;3.70;;;1.45;;
3070;SDS011;1546;47.208;9.038;2023-04-03T01:17:26;3.25;;;1.00;;
3070;SDS011;1546;47.208;9.038;2023-04-03T01:20:01;3.33;;;0.90;;
3070;SDS011;1546;47.208;9.038;2023-04-03T01:22:48;3.30;;;0.90;;
3070;SDS011;1546;47.208;9.038;2023-04-03T01:25:22;5.22;;;1.25;;
3070;SDS011;1546;47.208;9.038;2023-04-03T01:27:49;3.40;;;1.08;;
3070;SDS011;1546;47.208;9.038;2023-04-03T01:30:17;3.22;;;1.00;;
3070;SDS011;1546;47.208;9.038;2023-04-03T01:32:47;3.38;;;1.10;;
3070;SDS011;1546;47.208;9.038;2023-04-03T01:35:14;4.65;;;1.08;;
3070;SDS011;1546;47.208;9.038;2023-04-03T01:37:41;3.50;;;1.23;;
3070;SDS011;1546;47.208;9.038;2023-04-03T01:40:08;3.20;;;0.80;;
3070;SDS011;1546;47.208;9.038;2023-04-03T01:42:35;3.70;;;1.30;;
3070;SDS011;1546;47.208;9.038;2023-04-03T01:45:02;2.90;;;0.90;;
3070;SDS011;1546;47.208;9.038;2023-04-03T01:47:30;3.65;;;1.10;;
3070;SDS011;1546;47.208;9.038;2023-04-03T01:49:58;4.20;;;1.25;;
3070;SDS011;1546;47.208;9.038;2023-04-03T01:52:25;3.30;;;1.00;;
3070;SDS011;1546;47.208;9.038;2023-04-03T01:54:52;3.90;;;1.38;;
3070;SDS011;1546;47.208;9.038;2023-04-03T01:57:19;3.80;;;1.27;;
3070;SDS011;1546;47.208;9.038;2023-04-03T01:59:45;3.78;;;1.30;;
3070;SDS011;1546;47.208;9.038;2023-04-03T02:02:12;3.85;;;1.10;;
3070;SDS011;1546;47.208;9.038;2023-04-03T02:04:39;3.20;;;1.00;;
3070;SDS011;1546;47.208;9.038;2023-04-03T02:07:08;3.50;;;1.20;;
3070;SDS011;1546;47.208;9.038;2023-04-03T02:09:35;3.83;;;1.20;;
3070;SDS011;1546;47.208;9.038;2023-04-03T02:12:02;3.20;;;0.82;;
3070;SDS011;1546;47.208;9.038;2023-04-03T02:14:29;3.55;;;1.15;;
3070;SDS011;1546;47.208;9.038;2023-04-03T02:16:55;4.53;;;1.10;;
3070;SDS011;1546;47.208;9.038;2023-04-03T02:19:22;3.42;;;1.00;;
3070;SDS011;1546;47.208;9.038;2023-04-03T02:21:49;3.50;;;1.23;;
3070;SDS011;1546;47.208;9.038;2023-04-03T02:24:17;3.25;;;0.82;;
3070;SDS011;1546;47.208;9.038;2023-04-03T02:26:44;3.33;;;0.93;;
3070;SDS011;1546;47.208;9.038;2023-04-03T02:29:11;3.50;;;1.05;;
3070;SDS011;1546;47.208;9.038;2023-04-03T02:31:38;5.07;;;1.33;;
3070;SDS011;1546;47.208;9.038;2023-04-03T02:34:05;3.65;;;1.35;;
3070;SDS011;1546;47.208;9.038;2023-04-03T02:36:32;3.53;;;1.40;;
3070;SDS011;1546;47.208;9.038;2023-04-03T02:38:59;4.60;;;1.85;;
3070;SDS011;1546;47.208;9.038;2023-04-03T02:41:27;5.13;;;1.80;;
3070;SDS011;1546;47.208;9.038;2023-04-03T02:43:59;3.90;;;1.50;;
3070;SDS011;1546;47.208;9.038;2023-04-03T02:46:26;4.80;;;1.70;;
3070;SDS011;1546;47.208;9.038;2023-04-03T02:48:53;4.72;;;1.45;;
3070;SDS011;1546;47.208;9.038;2023-04-03T02:51:20;4.70;;;2.58;;
3070;SDS011;1546;47.208;9.038;2023-04-03T02:53:48;3.63;;;1.13;;
3070;SDS011;1546;47.208;9.038;2023-04-03T02:56:15;5.05;;;1.88;;
3070;SDS011;1546;47.208;9.038;2023-04-03T02:58:43;4.40;;;1.55;;
3070;SDS011;1546;47.208;9.038;2023-04-03T03:01:10;5.43;;;2.38;;
3070;SDS011;1546;47.208;9.038;2023-04-03T03:03:37;4.30;;;1.52;;
3070;SDS011;1546;47.208;9.038;2023-04-03T03:06:05;5.15;;;2.30;;
3070;SDS011;1546;47.208;9.038;2023-04-03T03:08:33;4.75;;;1.85;;
3070;SDS011;1546;47.208;9.038;2023-04-03T03:11:01;5.53;;;2.33;;
3070;SDS011;1546;47.208;9.038;2023-04-03T03:13:28;4.80;;;2.00;;
3070;SDS011;1546;47.208;9.038;2023-04-03T03:15:57;5.05;;;2.17;;
3070;SDS011;1546;47.208;9.038;2023-04-03T03:18:24;5.72;;;2.42;;
3070;SDS011;1546;47.208;9.038;2023-04-03T03:20:51;4.13;;;1.95;;
3070;SDS011;1546;47.208;9.038;2023-04-03T03:23:18;4.57;;;1.70;;
3070;SDS011;1546;47.208;9.038;2023-04-03T03:25:45;4.95;;;2.20;;
3070;SDS011;1546;47.208;9.038;2023-04-03T03:28:12;5.93;;;2.40;;
3070;SDS011;1546;47.208;9.038;2023-04-03T03:30:39;6.28;;;3.20;;
3070;SDS011;1546;47.208;9.038;2023-04-03T03:33:08;5.60;;;2.80;;
3070;SDS011;1546;47.208;9.038;2023-04-03T03:35:34;5.28;;;2.30;;
3070;SDS011;1546;47.208;9.038;2023-04-03T03:38:01;4.72;;;2.00;;
3070;SDS011;1546;47.208;9.038;2023-04-03T03:40:28;5.38;;;2.83;;
3070;SDS011;1546;47.208;9.038;2023-04-03T03:42:55;6.00;;;2.70;;
3070;SDS011;1546;47.208;9.038;2023-04-03T03:45:22;5.00;;;2.60;;
3070;SDS011;1546;47.208;9.038;2023-04-03T03:47:49;6.30;;;2.75;;
3070;SDS011;1546;47.208;9.038;2023-04-03T03:50:17;6.32;;;3.40;;
3070;SDS011;1546;47.208;9.038;2023-04-03T03:52:44;6.07;;;2.67;;
3070;SDS011;1546;47.208;9.038;2023-04-03T03:55:11;6.32;;;2.53;;
3070;SDS011;1546;47.208;9.038;2023-04-03T03:57:38;6.22;;;2.65;;
3070;SDS011;1546;47.208;9.038;2023-04-03T04:00:05;5.38;;;2.75;;
3070;SDS011;1546;47.208;9.038;2023-04-03T04:02:33;6.60;;;3.65;;
3070;SDS011;1546;47.208;9.038;2023-04-03T04:05:00;9.15;;;4.30;;
3070;SDS011;1546;47.208;9.038;2023-04-03T04:07:28;7.88;;;3.30;;
3070;SDS011;1546;47.208;9.038;2023-04-03T04:09:55;7.78;;;3.72;;
3070;SDS011;1546;47.208;9.038;2023-04-03T04:12:22;6.63;;;2.70;;
3070;SDS011;1546;47.208;9.038;2023-04-03T04:14:49;5.53;;;2.88;;
3070;SDS011;1546;47.208;9.038;2023-04-03T04:17:16;6.22;;;3.45;;
3070;SDS011;1546;47.208;9.038;2023-04-03T04:19:42;6.95;;;3.28;;
3070;SDS011;1546;47.208;9.038;2023-04-03T04:22:09;7.95;;;3.17;;
3070;SDS011;1546;47.208;9.038;2023-04-03T04:24:38;5.88;;;3.17;;
3070;SDS011;1546;47.208;9.038;2023-04-03T04:27:04;6.13;;;2.97;;
3070;SDS011;1546;47.208;9.038;2023-04-03T04:29:31;7.03;;;3.50;;
3070;SDS011;1546;47.208;9.038;2023-04-03T04:32:00;6.63;;;3.05;;
3070;SDS011;1546;47.208;9.038;2023-04-03T04:34:27;5.60;;;3.28;;
3070;SDS011;1546;47.208;9.038;2023-04-03T04:36:54;6.60;;;3.88;;
3070;SDS011;1546;47.208;9.038;2023-04-03T04:39:21;5.75;;;2.90;;
3070;SDS011;1546;47.208;9.038;2023-04-03T04:41:49;6.72;;;3.40;;
3070;SDS011;1546;47.208;9.038;2023-04-03T04:44:16;6.32;;;3.42;;
3070;SDS011;1546;47.208;9.038;2023-04-03T04:46:43;6.80;;;3.45;;
3070;SDS011;1546;47.208;9.038;2023-04-03T04:49:10;5.25;;;3.08;;
3070;SDS011;1546;47.208;9.038;2023-04-03T04:51:37;7.47;;;3.40;;
3070;SDS011;1546;47.208;9.038;2023-04-03T04:54:04;6.60;;;2.65;;
3070;SDS011;1546;47.208;9.038;2023-04-03T04:56:31;7.20;;;3.00;;
3070;SDS011;1546;47.208;9.038;2023-04-03T04:58:59;6.82;;;3.45;;
3070;SDS011;1546;47.208;9.038;2023-04-03T05:01:26;6.43;;;3.17;;
3070;SDS011;1546;47.208;9.038;2023-04-03T05:03:53;6.20;;;3.95;;
3070;SDS011;1546;47.208;9.038;2023-04-03T05:06:20;7.93;;;3.70;;
3070;SDS011;1546;47.208;9.038;2023-04-03T05:08:47;6.43;;;3.05;;
3070;SDS011;1546;47.208;9.038;2023-04-03T05:11:13;6.30;;;3.28;;
3070;SDS011;1546;47.208;9.038;2023-04-03T05:13:41;5.20;;;2.80;;
3070;SDS011;1546;47.208;9.038;2023-04-03T05:16:09;6.75;;;3.22;;
3070;SDS011;1546;47.208;9.038;2023-04-03T05:18:36;8.10;;;3.95;;
3070;SDS011;1546;47.208;9.038;2023-04-03T05:21:03;7.10;;;2.97;;
3070;SDS011;1546;47.208;9.038;2023-04-03T05:23:30;6.50;;;2.35;;
3070;SDS011;1546;47.208;9.038;2023-04-03T05:25:57;9.35;;;3.58;;
3070;SDS011;1546;47.208;9.038;2023-04-03T05:28:24;8.25;;;3.45;;
3070;SDS011;1546;47.208;9.038;2023-04-03T05:30:54;11.13;;;5.70;;
3070;SDS011;1546;47.208;9.038;2023-04-03T05:33:23;8.73;;;4.32;;
3070;SDS011;1546;47.208;9.038;2023-04-03T05:35:51;13.52;;;4.90;;
3070;SDS011;1546;47.208;9.038;2023-04-03T05:38:18;5.93;;;2.35;;
3070;SDS011;1546;47.208;9.038;2023-04-03T05:40:45;8.68;;;3.42;;
3070;SDS011;1546;47.208;9.038;2023-04-03T05:43:12;6.07;;;3.45;;
3070;SDS011;1546;47.208;9.038;2023-04-03T05:45:39;7.53;;;3.35;;
3070;SDS011;1546;47.208;9.038;2023-04-03T05:48:06;6.85;;;2.80;;
3070;SDS011;1546;47.208;9.038;2023-04-03T05:50:35;6.68;;;2.95;;
3070;SDS011;1546;47.208;9.038;2023-04-03T05:53:06;5.57;;;2.67;;
3070;SDS011;1546;47.208;9.038;2023-04-03T05:55:38;5.97;;;2.70;;
3070;SDS011;1546;47.208;9.038;2023-04-03T05:58:05;6.72;;;3.03;;
3070;SDS011;1546;47.208;9.038;2023-04-03T06:00:32;8.70;;;3.20;;
3070;SDS011;1546;47.208;9.038;2023-04-03T06:02:59;10.88;;;3.85;;
3070;SDS011;1546;47.208;9.038;2023-04-03T06:05:26;5.40;;;2.22;;
3070;SDS011;1546;47.208;9.038;2023-04-03T06:07:54;7.28;;;3.15;;
3070;SDS011;1546;47.208;9.038;2023-04-03T06:10:22;6.88;;;3.30;;
3070;SDS011;1546;47.208;9.038;2023-04-03T06:12:49;5.13;;;2.60;;
3070;SDS011;1546;47.208;9.038;2023-04-03T06:15:16;7.35;;;2.53;;
3070;SDS011;1546;47.208;9.038;2023-04-03T06:17:43;5.72;;;2.95;;
3070;SDS011;1546;47.208;9.038;2023-04-03T06:20:10;6.88;;;3.40;;
3070;SDS011;1546;47.208;9.038;2023-04-03T06:22:38;8.15;;;3.35;;
3070;SDS011;1546;47.208;9.038;2023-04-03T06:25:08;7.10;;;3.25;;
3070;SDS011;1546;47.208;9.038;2023-04-03T06:27:36;6.40;;;3.13;;
3070;SDS011;1546;47.208;9.038;2023-04-03T06:30:03;5.40;;;3.05;;
3070;SDS011;1546;47.208;9.038;2023-04-03T06:32:31;7.20;;;3.65;;
3070;SDS011;1546;47.208;9.038;2023-04-03T06:34:58;7.22;;;3.55;;
3070;SDS011;1546;47.208;9.038;2023-04-03T06:37:25;5.60;;;3.00;;
3070;SDS011;1546;47.208;9.038;2023-04-03T06:39:53;7.15;;;4.13;;
3070;SDS011;1546;47.208;9.038;2023-04-03T06:42:22;6.63;;;3.50;;
3070;SDS011;1546;47.208;9.038;2023-04-03T06:44:49;5.90;;;2.53;;
3070;SDS011;1546;47.208;9.038;2023-04-03T06:47:16;7.93;;;3.80;;
3070;SDS011;1546;47.208;9.038;2023-04-03T06:49:44;6.57;;;3.03;;
3070;SDS011;1546;47.208;9.038;2023-04-03T06:52:11;10.77;;;3.97;;
3070;SDS011;1546;47.208;9.038;2023-04-03T06:54:38;7.00;;;3.40;;
3070;SDS011;1546;47.208;9.038;2023-04-03T06:57:05;7.43;;;3.90;;
3070;SDS011;1546;47.208;9.038;2023-04-03T06:59:34;8.80;;;4.45;;
3070;SDS011;1546;47.208;9.038;2023-04-03T07:02:01;8.95;;;5.25;;
3070;SDS011;1546;47.208;9.038;2023-04-03T07:04:28;8.82;;;4.30;;
3070;SDS011;1546;47.208;9.038;2023-04-03T07:06:55;8.25;;;4.00;;
3070;SDS011;1546;47.208;9.038;2023-04-03T07:09:22;7.00;;;3.65;;
3070;SDS011;1546;47.208;9.038;2023-04-03T07:11:49;6.80;;;3.17;;
3070;SDS011;1546;47.208;9.038;2023-04-03T07:14:16;7.18;;;3.47;;
3070;SDS011;1546;47.208;9.038;2023-04-03T07:16:44;9.35;;;5.88;;
3070;SDS011;1546;47.208;9.038;2023-04-03T07:19:11;7.15;;;4.18;;
3070;SDS011;1546;47.208;9.038;2023-04-03T07:21:38;7.32;;;4.03;;
3070;SDS011;1546;47.208;9.038;2023-04-03T07:24:06;6.97;;;3.70;;
3070;SDS011;1546;47.208;9.038;2023-04-03T07:26:33;7.72;;;4.20;;
3070;SDS011;1546;47.208;9.038;2023-04-03T07:29:00;7.97;;;3.38;;
3070;SDS011;1546;47.208;9.038;2023-04-03T07:31:27;8.07;;;3.63;;
3070;SDS011;1546;47.208;9.038;2023-04-03T07:33:55;9.23;;;4.28;;
3070;SDS011;1546;47.208;9.038;2023-04-03T07:36:22;7.57;;;4.10;;
3070;SDS011;1546;47.208;9.038;2023-04-03T07:38:49;7.55;;;2.90;;
3070;SDS011;1546;47.208;9.038;2023-04-03T07:41:16;7.85;;;3.78;;
3070;SDS011;1546;47.208;9.038;2023-04-03T07:43:45;7.60;;;3.92;;
3070;SDS011;1546;47.208;9.038;2023-04-03T07:46:14;6.97;;;3.40;;
3070;SDS011;1546;47.208;9.038;2023-04-03T07:48:42;5.90;;;3.90;;
3070;SDS011;1546;47.208;9.038;2023-04-03T07:51:11;6.75;;;3.75;;
3070;SDS011;1546;47.208;9.038;2023-04-03T07:53:39;8.75;;;4.53;;
3070;SDS011;1546;47.208;9.038;2023-04-03T07:56:06;6.15;;;3.42;;
3070;SDS011;1546;47.208;9.038;2023-04-03T07:58:34;8.88;;;4.15;;
3070;SDS011;1546;47.208;9.038;2023-04-03T08:01:02;6.63;;;3.60;;
3070;SDS011;1546;47.208;9.038;2023-04-03T08:03:29;6.80;;;3.78;;
3070;SDS011;1546;47.208;9.038;2023-04-03T08:06:00;6.75;;;3.75;;
3070;SDS011;1546;47.208;9.038;2023-04-03T08:08:30;7.45;;;3.83;;
3070;SDS011;1546;47.208;9.038;2023-04-03T08:10:58;6.28;;;2.92;;
3070;SDS011;1546;47.208;9.038;2023-04-03T08:13:27;7.13;;;3.83;;
3070;SDS011;1546;47.208;9.038;2023-04-03T08:15:54;11.38;;;3.85;;
3070;SDS011;1546;47.208;9.038;2023-04-03T08:18:22;7.78;;;3.72;;
3070;SDS011;1546;47.208;9.038;2023-04-03T08:20:49;6.72;;;3.50;;
3070;SDS011;1546;47.208;9.038;2023-04-03T08:23:17;6.60;;;3.38;;
3070;SDS011;1546;47.208;9.038;2023-04-03T08:25:45;6.22;;;2.95;;
3070;SDS011;1546;47.208;9.038;2023-04-03T08:28:12;6.85;;;3.40;;
3070;SDS011;1546;47.208;9.038;2023-04-03T08:30:39;6.63;;;3.90;;
3070;SDS011;1546;47.208;9.038;2023-04-03T08:33:07;6.60;;;3.67;;
3070;SDS011;1546;47.208;9.038;2023-04-03T08:35:37;8.52;;;3.58;;
3070;SDS011;1546;47.208;9.038;2023-04-03T08:38:05;6.00;;;2.80;;
3070;SDS011;1546;47.208;9.038;2023-04-03T08:40:32;9.35;;;4.68;;
3070;SDS011;1546;47.208;9.038;2023-04-03T08:43:03;8.68;;;4.18;;
3070;SDS011;1546;47.208;9.038;2023-04-03T08:45:50;10.43;;;5.30;;
3070;SDS011;1546;47.208;9.038;2023-04-03T08:48:20;9.55;;;4.10;;
3070;SDS011;1546;47.208;9.038;2023-04-03T08:50:51;7.90;;;4.07;;
3070;SDS011;1546;47.208;9.038;2023-04-03T08:53:23;6.15;;;2.72;;
3070;SDS011;1546;47.208;9.038;2023-04-03T08:55:57;10.35;;;3.55;;
3070;SDS011;1546;47.208;9.038;2023-04-03T08:58:26;5.32;;;2.25;;
3070;SDS011;1546;47.208;9.038;2023-04-03T09:00:56;8.48;;;3.20;;
3070;SDS011;1546;47.208;9.038;2023-04-03T09:03:28;9.02;;;4.10;;
3070;SDS011;1546;47.208;9.038;2023-04-03T09:05:57;9.32;;;4.28;;
3070;SDS011;1546;47.208;9.038;2023-04-03T09:08:29;8.27;;;4.28;;
3070;SDS011;1546;47.208;9.038;2023-04-03T09:10:59;7.85;;;4.20;;
3070;SDS011;1546;47.208;9.038;2023-04-03T09:13:39;6.88;;;3.67;;
3070;SDS011;1546;47.208;9.038;2023-04-03T09:16:19;5.97;;;2.65;;
3070;SDS011;1546;47.208;9.038;2023-04-03T09:18:52;6.57;;;2.15;;
3070;SDS011;1546;47.208;9.038;2023-04-03T09:21:29;6.68;;;3.05;;
3070;SDS011;1546;47.208;9.038;2023-04-03T09:24:00;6.10;;;3.25;;
3070;SDS011;1546;47.208;9.038;2023-04-03T09:26:31;6.60;;;2.95;;
3070;SDS011;1546;47.208;9.038;2023-04-03T09:29:04;5.60;;;3.00;;
3070;SDS011;1546;47.208;9.038;2023-04-03T09:31:35;7.30;;;2.90;;
3070;SDS011;1546;47.208;9.038;2023-04-03T09:34:05;7.90;;;2.72;;
3070;SDS011;1546;47.208;9.038;2023-04-03T09:36:39;7.68;;;3.65;;
3070;SDS011;1546;47.208;9.038;2023-04-03T09:39:09;6.22;;;3.45;;
3070;SDS011;1546;47.208;9.038;2023-04-03T09:41:38;6.38;;;3.45;;
3070;SDS011;1546;47.208;9.038;2023-04-03T09:44:18;6.88;;;3.15;;
3070;SDS011;1546;47.208;9.038;2023-04-03T09:46:47;6.95;;;3.60;;
3070;SDS011;1546;47.208;9.038;2023-04-03T09:49:14;4.63;;;2.22;;
3070;SDS011;1546;47.208;9.038;2023-04-03T09:51:42;5.18;;;3.08;;
3070;SDS011;1546;47.208;9.038;2023-04-03T09:57:01;6.07;;;3.10;;
3070;SDS011;1546;47.208;9.038;2023-04-03T09:59:34;7.43;;;4.00;;
3070;SDS011;1546;47.208;9.038;2023-04-03T10:02:02;6.07;;;3.25;;
3070;SDS011;1546;47.208;9.038;2023-04-03T10:04:36;5.25;;;2.42;;
3070;SDS011;1546;47.208;9.038;2023-04-03T10:07:04;6.72;;;1.60;;
3070;SDS011;1546;47.208;9.038;2023-04-03T10:09:54;6.07;;;2.78;;
3070;SDS011;1546;47.208;9.038;2023-04-03T10:12:22;5.63;;;2.40;;
3070;SDS011;1546;47.208;9.038;2023-04-03T10:14:54;5.72;;;2.88;;
3070;SDS011;1546;47.208;9.038;2023-04-03T10:17:24;10.48;;;3.45;;
3070;SDS011;1546;47.208;9.038;2023-04-03T10:20:08;5.90;;;1.95;;
3070;SDS011;1546;47.208;9.038;2023-04-03T10:22:46;7.20;;;3.45;;
3070;SDS011;1546;47.208;9.038;2023-04-03T10:25:22;7.60;;;3.90;;
3070;SDS011;1546;47.208;9.038;2023-04-03T10:27:58;7.80;;;3.13;;
3070;SDS011;1546;47.208;9.038;2023-04-03T10:30:34;5.63;;;2.85;;
3070;SDS011;1546;47.208;9.038;2023-04-03T10:33:19;5.38;;;2.50;;
3070;SDS011;1546;47.208;9.038;2023-04-03T10:35:55;5.78;;;2.58;;
3070;SDS011;1546;47.208;9.038;2023-04-03T10:38:36;8.25;;;3.65;;
3070;SDS011;1546;47.208;9.038;2023-04-03T10:41:15;5.90;;;3.17;;
3070;SDS011;1546;47.208;9.038;2023-04-03T10:43:48;6.03;;;2.70;;
3070;SDS011;1546;47.208;9.038;2023-04-03T10:46:27;5.90;;;3.15;;
3070;SDS011;1546;47.208;9.038;2023-04-03T10:49:01;7.25;;;3.40;;
3070;SDS011;1546;47.208;9.038;2023-04-03T10:51:39;5.53;;;2.40;;
3070;SDS011;1546;47.208;9.038;2023-04-03T10:54:11;7.20;;;3.20;;
3070;SDS011;1546;47.208;9.038;2023-04-03T10:56:40;5.93;;;1.98;;
3070;SDS011;1546;47.208;9.038;2023-04-03T10:59:16;6.47;;;3.13;;
3070;SDS011;1546;47.208;9.038;2023-04-03T11:01:50;5.10;;;2.45;;
3070;SDS011;1546;47.208;9.038;2023-04-03T11:04:20;6.50;;;2.80;;
3070;SDS011;1546;47.208;9.038;2023-04-03T11:06:51;5.97;;;2.97;;
3070;SDS011;1546;47.208;9.038;2023-04-03T11:09:23;7.50;;;3.30;;
3070;SDS011;1546;47.208;9.038;2023-04-03T11:11:55;5.40;;;2.00;;
3070;SDS011;1546;47.208;9.038;2023-04-03T11:14:27;5.05;;;2.50;;
3070;SDS011;1546;47.208;9.038;2023-04-03T11:17:01;5.72;;;3.25;;
3070;SDS011;1546;47.208;9.038;2023-04-03T11:19:37;6.30;;;2.78;;
3070;SDS011;1546;47.208;9.038;2023-04-03T11:22:13;6.82;;;3.47;;
3070;SDS011;1546;47.208;9.038;2023-04-03T11:24:51;6.82;;;3.75;;
3070;SDS011;1546;47.208;9.038;2023-04-03T11:27:23;6.25;;;3.30;;
3070;SDS011;1546;47.208;9.038;2023-04-03T11:29:52;7.40;;;3.25;;
3070;SDS011;1546;47.208;9.038;2023-04-03T11:32:36;6.90;;;3.83;;
3070;SDS011;1546;47.208;9.038;2023-04-03T11:35:15;8.98;;;3.70;;
3070;SDS011;1546;47.208;9.038;2023-04-03T11:37:44;4.90;;;2.25;;
3070;SDS011;1546;47.208;9.038;2023-04-03T11:40:19;6.97;;;2.90;;
3070;SDS011;1546;47.208;9.038;2023-04-03T11:42:51;4.25;;;1.70;;
3070;SDS011;1546;47.208;9.038;2023-04-03T11:45:34;6.40;;;2.60;;
3070;SDS011;1546;47.208;9.038;2023-04-03T11:48:04;8.63;;;3.60;;
3070;SDS011;1546;47.208;9.038;2023-04-03T11:50:42;6.88;;;3.10;;
3070;SDS011;1546;47.208;9.038;2023-04-03T11:53:30;5.63;;;2.75;;
3070;SDS011;1546;47.208;9.038;2023-04-03T11:56:03;9.02;;;3.63;;
3070;SDS011;1546;47.208;9.038;2023-04-03T12:01:48;6.18;;;3.00;;
3070;SDS011;1546;47.208;9.038;2023-04-03T12:04:17;6.10;;;2.47;;
3070;SDS011;1546;47.208;9.038;2023-04-03T12:06:50;4.65;;;2.22;;
3070;SDS011;1546;47.208;9.038;2023-04-03T12:09:26;6.93;;;3.35;;
3070;SDS011;1546;47.208;9.038;2023-04-03T12:11:56;5.60;;;2.50;;
3070;SDS011;1546;47.208;9.038;2023-04-03T12:14:25;5.55;;;2.88;;
3070;SDS011;1546;47.208;9.038;2023-04-03T12:16:53;4.63;;;2.10;;
3070;SDS011;1546;47.208;9.038;2023-04-03T12:19:36;7.68;;;2.42;;
3070;SDS011;1546;47.208;9.038;2023-04-03T12:22:13;4.63;;;2.10;;
3070;SDS011;1546;47.208;9.038;2023-04-03T12:24:41;7.13;;;2.47;;
3070;SDS011;1546;47.208;9.038;2023-04-03T12:27:14;5.30;;;2.22;;
3070;SDS011;1546;47.208;9.038;2023-04-03T12:29:50;5.72;;;2.90;;
3070;SDS011;1546;47.208;9.038;2023-04-03T12:32:24;6.22;;;2.72;;
3070;SDS011;1546;47.208;9.038;2023-04-03T12:35:06;5.43;;;2.65;;
3070;SDS011;1546;47.208;9.038;2023-04-03T12:37:56;4.80;;;2.17;;
3070;SDS011;1546;47.208;9.038;2023-04-03T12:40:56;6.60;;;2.15;;
3070;SDS011;1546;47.208;9.038;2023-04-03T12:43:39;5.53;;;2.90;;
3070;SDS011;1546;47.208;9.038;2023-04-03T12:46:14;6.50;;;2.85;;
3070;SDS011;1546;47.208;9.038;2023-04-03T12:48:47;5.22;;;1.75;;
3070;SDS011;1546;47.208;9.038;2023-04-03T12:51:18;4.90;;;2.35;;
3070;SDS011;1546;47.208;9.038;2023-04-03T12:53:48;5.13;;;2.40;;
3070;SDS011;1546;47.208;9.038;2023-04-03T12:56:20;4.85;;;2.17;;
3070;SDS011;1546;47.208;9.038;2023-04-03T12:58:49;5.25;;;2.00;;
3070;SDS011;1546;47.208;9.038;2023-04-03T13:01:18;5.20;;;2.05;;
3070;SDS011;1546;47.208;9.038;2023-04-03T13:03:49;4.20;;;1.80;;
3070;SDS011;1546;47.208;9.038;2023-04-03T13:06:21;7.45;;;2.47;;
3070;SDS011;1546;47.208;9.038;2023-04-03T13:08:50;6.13;;;2.88;;
3070;SDS011;1546;47.208;9.038;2023-04-03T13:11:17;8.00;;;3.15;;
3070;SDS011;1546;47.208;9.038;2023-04-03T13:13:56;4.80;;;1.83;;
3070;SDS011;1546;47.208;9.038;2023-04-03T13:16:24;5.95;;;2.90;;
3070;SDS011;1546;47.208;9.038;2023-04-03T13:18:51;8.27;;;3.00;;
3070;SDS011;1546;47.208;9.038;2023-04-03T13:21:22;8.57;;;3.00;;
3070;SDS011;1546;47.208;9.038;2023-04-03T13:23:52;7.13;;;3.55;;
3070;SDS011;1546;47.208;9.038;2023-04-03T13:26:27;7.00;;;3.80;;
3070;SDS011;1546;47.208;9.038;2023-04-03T13:28:59;7.35;;;3.13;;
3070;SDS011;1546;47.208;9.038;2023-04-03T13:31:29;5.90;;;2.58;;
3070;SDS011;1546;47.208;9.038;2023-04-03T13:33:59;7.30;;;3.33;;
3070;SDS011;1546;47.208;9.038;2023-04-03T13:36:33;6.15;;;3.10;;
3070;SDS011;1546;47.208;9.038;2023-04-03T13:39:03;6.40;;;2.78;;
3070;SDS011;1546;47.208;9.038;2023-04-03T13:41:33;6.30;;;2.97;;
3070;SDS011;1546;47.208;9.038;2023-04-03T13:44:18;5.63;;;3.22;;
3070;SDS011;1546;47.208;9.038;2023-04-03T13:46:54;6.30;;;3.28;;
3070;SDS011;1546;47.208;9.038;2023-04-03T13:49:28;6.20;;;2.50;;
3070;SDS011;1546;47.208;9.038;2023-04-03T13:51:59;5.72;;;2.35;;
3070;SDS011;1546;47.208;9.038;2023-04-03T13:54:29;6.32;;;3.10;;
3070;SDS011;1546;47.208;9.038;2023-04-03T13:56:58;5.35;;;2.00;;
3070;SDS011;1546;47.208;9.038;2023-04-03T13:59:27;8.02;;;3.20;;
3070;SDS011;1546;47.208;9.038;2023-04-03T14:02:06;5.38;;;2.65;;
3070;SDS011;1546;47.208;9.038;2023-04-03T14:04:45;6.72;;;3.17;;
3070;SDS011;1546;47.208;9.038;2023-04-03T14:07:17;6.32;;;2.95;;
3070;SDS011;1546;47.208;9.038;2023-04-03T14:09:45;6.63;;;3.60;;
3070;SDS011;1546;47.208;9.038;2023-04-03T14:12:13;6.72;;;3.33;;
3070;SDS011;1546;47.208;9.038;2023-04-03T14:14:43;7.18;;;4.30;;
3070;SDS011;1546;47.208;9.038;2023-04-03T14:17:13;11.75;;;3.78;;
3070;SDS011;1546;47.208;9.038;2023-04-03T14:19:42;6.25;;;3.60;;
3070;SDS011;1546;47.208;9.038;2023-04-03T14:22:11;6.57;;;3.20;;
3070;SDS011;1546;47.208;9.038;2023-04-03T14:24:43;9.02;;;3.00;;
3070;SDS011;1546;47.208;9.038;2023-04-03T14:27:14;5.35;;;2.95;;
3070;SDS011;1546;47.208;9.038;2023-04-03T14:29:43;6.10;;;3.65;;
3070;SDS011;1546;47.208;9.038;2023-04-03T14:32:10;6.72;;;3.50;;
3070;SDS011;1546;47.208;9.038;2023-04-03T14:34:38;6.05;;;3.55;;
3070;SDS011;1546;47.208;9.038;2023-04-03T14:37:08;7.30;;;3.42;;
3070;SDS011;1546;47.208;9.038;2023-04-03T14:39:37;6.40;;;2.85;;
3070;SDS011;1546;47.208;9.038;2023-04-03T14:42:06;6.85;;;3.25;;
3070;SDS011;1546;47.208;9.038;2023-04-03T14:44:37;7.13;;;4.05;;
3070;SDS011;1546;47.208;9.038;2023-04-03T14:47:04;5.72;;;2.10;;
3070;SDS011;1546;47.208;9.038;2023-04-03T14:49:31;5.50;;;2.75;;
3070;SDS011;1546;47.208;9.038;2023-04-03T14:51:58;7.60;;;3.30;;
3070;SDS011;1546;47.208;9.038;2023-04-03T14:54:25;6.22;;;3.10;;
3070;SDS011;1546;47.208;9.038;2023-04-03T14:56:54;5.30;;;2.72;;
3070;SDS011;1546;47.208;9.038;2023-04-03T14:59:23;7.72;;;3.75;;
3070;SDS011;1546;47.208;9.038;2023-04-03T15:01:50;5.95;;;3.10;;
3070;SDS011;1546;47.208;9.038;2023-04-03T15:04:18;5.07;;;2.92;;
3070;SDS011;1546;47.208;9.038;2023-04-03T15:06:46;8.38;;;4.00;;
3070;SDS011;1546;47.208;9.038;2023-04-03T15:09:17;6.78;;;2.95;;
3070;SDS011;1546;47.208;9.038;2023-04-03T15:11:47;6.10;;;3.50;;
3070;SDS011;1546;47.208;9.038;2023-04-03T15:14:14;4.93;;;2.42;;
3070;SDS011;1546;47.208;9.038;2023-04-03T15:16:42;6.93;;;3.78;;
3070;SDS011;1546;47.208;9.038;2023-04-03T15:19:09;7.30;;;3.78;;
3070;SDS011;1546;47.208;9.038;2023-04-03T15:21:37;7.35;;;3.42;;
3070;SDS011;1546;47.208;9.038;2023-04-03T15:24:04;6.28;;;3.40;;
3070;SDS011;1546;47.208;9.038;2023-04-03T15:26:31;6.88;;;3.15;;
3070;SDS011;1546;47.208;9.038;2023-04-03T15:28:59;5.00;;;2.55;;
3070;SDS011;1546;47.208;9.038;2023-04-03T15:31:26;6.32;;;2.88;;
3070;SDS011;1546;47.208;9.038;2023-04-03T15:33:55;5.32;;;2.30;;
3070;SDS011;1546;47.208;9.038;2023-04-03T15:36:22;7.60;;;3.22;;